createdAt,value
2023-01-30T00:01:14.920Z,19.03
2023-01-30T00:03:41.462Z,19.02
2023-01-30T00:06:08.012Z,18.93
2023-01-30T00:08:34.714Z,19.02
2023-01-30T00:11:07.100Z,19.07
2023-01-30T00:13:34.137Z,19.08
2023-01-30T00:16:00.791Z,19.04
2023-01-30T00:18:27.410Z,19.03
2023-01-30T00:21:01.704Z,19.07
2023-01-30T00:23:29.213Z,19.04
2023-01-30T00:25:56.161Z,19.09
2023-01-30T00:28:23.610Z,19.09
2023-01-30T00:30:54.456Z,19.04
2023-01-30T00:33:23.065Z,19.07
2023-01-30T00:35:51.810Z,19.07
2023-01-30T00:38:19.341Z,19.07
2023-01-30T00:40:47.385Z,19.08
2023-01-30T00:43:34.966Z,19.07
2023-01-30T00:46:22.244Z,19.05
2023-01-30T00:48:49.319Z,19.04
2023-01-30T00:51:15.910Z,19.02
2023-01-30T00:53:42.463Z,19.08
2023-01-30T00:56:09.021Z,19.09
2023-01-30T00:58:35.580Z,19.10
2023-01-30T01:01:02.137Z,19.12
2023-01-30T01:03:28.717Z,19.06
2023-01-30T01:05:55.365Z,19.01
2023-01-30T01:08:22.720Z,19.04
2023-01-30T01:10:49.425Z,19.04
2023-01-30T01:13:16.058Z,18.95
2023-01-30T01:15:42.633Z,19.00
2023-01-30T01:18:09.197Z,19.17
2023-01-30T01:20:35.876Z,19.35
2023-01-30T01:23:02.455Z,19.57
2023-01-30T01:25:29.100Z,19.72
2023-01-30T01:27:55.875Z,19.86
2023-01-30T01:30:22.454Z,19.96
2023-01-30T01:32:49.128Z,20.15
2023-01-30T01:35:16.165Z,20.26
2023-01-30T01:37:42.896Z,20.30
2023-01-30T01:40:36.321Z,20.37
2023-01-30T01:43:14.703Z,20.46
2023-01-30T01:45:41.715Z,20.48
2023-01-30T01:48:29.109Z,20.59
2023-01-30T01:51:16.324Z,20.58
2023-01-30T01:54:14.236Z,20.59
2023-01-30T01:56:45.898Z,20.60
2023-01-30T01:59:31.034Z,20.60
2023-01-30T02:02:03.364Z,20.59
2023-01-30T02:04:50.501Z,20.59
2023-01-30T02:07:20.826Z,20.53
2023-01-30T02:09:48.329Z,20.69
2023-01-30T02:12:15.377Z,20.81
2023-01-30T02:14:42.977Z,20.76
2023-01-30T02:17:09.688Z,20.68
2023-01-30T02:19:57.871Z,20.62
2023-01-30T02:22:33.430Z,20.60
2023-01-30T02:25:26.068Z,20.62
2023-01-30T02:28:04.342Z,20.66
2023-01-30T02:31:07.863Z,20.64
2023-01-30T02:33:58.745Z,20.74
2023-01-30T02:36:49.369Z,20.69
2023-01-30T02:39:57.409Z,20.71
2023-01-30T02:42:37.707Z,20.62
2023-01-30T02:45:12.612Z,20.61
2023-01-30T02:48:02.494Z,20.67
2023-01-30T02:50:58.987Z,20.63
2023-01-30T02:53:25.981Z,20.72
2023-01-30T02:55:52.543Z,20.77
2023-01-30T02:58:21.611Z,20.66
2023-01-30T03:01:23.590Z,20.76
2023-01-30T03:04:11.383Z,20.80
2023-01-30T03:07:12.318Z,20.90
2023-01-30T03:09:58.136Z,21.00
2023-01-30T03:12:33.554Z,20.98
2023-01-30T03:15:23.008Z,21.14
2023-01-30T03:17:49.786Z,21.18
2023-01-30T03:20:19.730Z,21.17
2023-01-30T03:22:46.567Z,21.17
2023-01-30T03:25:19.994Z,21.11
2023-01-30T03:27:47.866Z,21.31
2023-01-30T03:30:14.636Z,21.21
2023-01-30T03:32:41.212Z,21.26
2023-01-30T03:35:08.238Z,21.13
2023-01-30T03:37:35.139Z,21.12
2023-01-30T03:40:01.784Z,21.13
2023-01-30T03:42:28.654Z,21.20
2023-01-30T03:44:55.215Z,21.09
2023-01-30T03:47:21.870Z,20.88
2023-01-30T03:49:51.512Z,20.71
2023-01-30T03:52:18.060Z,20.51
2023-01-30T03:54:44.585Z,20.43
2023-01-30T03:57:11.125Z,20.24
2023-01-30T03:59:37.687Z,20.15
2023-01-30T04:02:04.384Z,20.10
2023-01-30T04:04:30.959Z,19.99
2023-01-30T04:06:57.506Z,19.94
2023-01-30T04:09:24.066Z,19.96
2023-01-30T04:11:50.645Z,19.92
2023-01-30T04:14:17.220Z,19.90
2023-01-30T04:16:44.431Z,19.90
2023-01-30T04:19:11.000Z,19.87
2023-01-30T04:21:37.682Z,19.94
2023-01-30T04:24:04.507Z,19.88
2023-01-30T04:26:31.114Z,19.86
2023-01-30T04:28:57.692Z,19.90
2023-01-30T04:31:24.273Z,19.86
2023-01-30T04:33:50.833Z,19.81
2023-01-30T04:36:17.380Z,19.79
2023-01-30T04:38:43.982Z,19.80
2023-01-30T04:41:10.640Z,19.77
2023-01-30T04:43:37.226Z,19.77
2023-01-30T04:46:03.927Z,19.74
2023-01-30T04:48:30.614Z,19.75
2023-01-30T04:50:57.715Z,19.75
2023-01-30T04:53:24.812Z,19.72
2023-01-30T04:55:51.521Z,19.70
2023-01-30T04:58:21.778Z,19.72
2023-01-30T05:00:49.030Z,19.68
2023-01-30T05:03:16.533Z,19.64
2023-01-30T05:05:47.036Z,19.65
2023-01-30T05:08:13.843Z,19.64
2023-01-30T05:10:40.407Z,19.61
2023-01-30T05:13:07.307Z,19.62
2023-01-30T05:15:33.967Z,19.63
2023-01-30T05:18:01.108Z,19.63
2023-01-30T05:20:27.705Z,19.60
2023-01-30T05:22:54.442Z,19.58
2023-01-30T05:25:21.244Z,19.56
2023-01-30T05:27:47.922Z,19.57
2023-01-30T05:30:14.621Z,19.54
2023-01-30T05:32:41.317Z,19.52
2023-01-30T05:35:08.156Z,19.49
2023-01-30T05:37:34.702Z,19.48
2023-01-30T05:40:01.274Z,19.46
2023-01-30T05:42:27.814Z,19.44
2023-01-30T05:44:54.352Z,19.40
2023-01-30T05:47:20.891Z,19.42
2023-01-30T05:49:47.468Z,19.42
2023-01-30T05:52:14.010Z,19.39
2023-01-30T05:54:40.581Z,19.37
2023-01-30T05:57:07.141Z,19.37
2023-01-30T05:59:33.867Z,19.29
2023-01-30T06:02:00.414Z,19.38
2023-01-30T06:04:27.006Z,19.36
2023-01-30T06:06:53.606Z,19.42
2023-01-30T06:09:20.147Z,19.36
2023-01-30T06:11:46.746Z,19.39
2023-01-30T06:14:13.378Z,19.34
2023-01-30T06:16:40.192Z,19.35
2023-01-30T06:19:08.038Z,19.36
2023-01-30T06:21:34.584Z,19.35
2023-01-30T06:24:02.222Z,19.33
2023-01-30T06:26:28.932Z,19.32
2023-01-30T06:28:55.513Z,19.30
2023-01-30T06:31:22.156Z,19.33
2023-01-30T06:33:49.449Z,19.30
2023-01-30T06:36:16.038Z,19.26
2023-01-30T06:38:42.615Z,19.21
2023-01-30T06:41:09.226Z,19.31
2023-01-30T06:43:35.784Z,19.28
2023-01-30T06:46:02.404Z,19.23
2023-01-30T06:48:29.077Z,19.24
2023-01-30T06:50:55.683Z,19.28
2023-01-30T06:53:25.314Z,19.25
2023-01-30T06:55:51.873Z,19.25
2023-01-30T06:58:18.539Z,19.19
2023-01-30T07:00:45.108Z,19.17
2023-01-30T07:03:16.672Z,19.23
2023-01-30T07:05:44.871Z,19.19
2023-01-30T07:08:12.124Z,19.15
2023-01-30T07:10:39.314Z,19.14
2023-01-30T07:13:05.970Z,19.11
2023-01-30T07:15:32.726Z,19.08
2023-01-30T07:17:59.688Z,19.22
2023-01-30T07:20:26.363Z,19.27
2023-01-30T07:22:54.528Z,19.26
2023-01-30T07:25:23.445Z,19.23
2023-01-30T07:27:57.037Z,19.23
2023-01-30T07:30:24.152Z,19.28
2023-01-30T07:32:55.650Z,19.25
2023-01-30T07:35:23.624Z,19.29
2023-01-30T07:37:51.257Z,19.36
2023-01-30T07:40:19.015Z,19.38
2023-01-30T07:42:56.408Z,19.41
2023-01-30T07:45:23.003Z,19.40
2023-01-30T07:47:49.561Z,19.39
2023-01-30T07:50:16.829Z,19.39
2023-01-30T07:52:43.678Z,19.41
2023-01-30T07:55:10.215Z,19.41
2023-01-30T07:57:36.781Z,19.35
2023-01-30T08:00:04.672Z,19.40
2023-01-30T08:02:31.316Z,19.39
2023-01-30T08:04:57.899Z,19.35
2023-01-30T08:07:24.500Z,19.33
2023-01-30T08:09:51.053Z,19.35
2023-01-30T08:12:17.612Z,19.41
2023-01-30T08:14:44.327Z,19.38
2023-01-30T08:17:10.942Z,19.36
2023-01-30T08:19:37.499Z,19.34
2023-01-30T08:22:04.713Z,19.36
2023-01-30T08:24:31.257Z,19.30
2023-01-30T08:26:57.862Z,19.26
2023-01-30T08:29:24.447Z,19.29
2023-01-30T08:31:51.008Z,19.32
2023-01-30T08:34:17.549Z,19.26
2023-01-30T08:36:46.616Z,19.32
2023-01-30T08:39:13.995Z,19.29
2023-01-30T08:41:43.144Z,19.28
2023-01-30T08:44:10.524Z,19.37
2023-01-30T08:46:38.675Z,19.34
2023-01-30T08:49:05.969Z,19.28
2023-01-30T08:51:33.150Z,19.28
2023-01-30T08:53:59.742Z,19.27
2023-01-30T08:56:26.315Z,19.27
2023-01-30T08:58:52.932Z,19.26
2023-01-30T09:01:19.569Z,19.27
2023-01-30T09:03:46.195Z,19.31
2023-01-30T09:06:12.852Z,19.31
2023-01-30T09:08:39.473Z,19.35
2023-01-30T09:11:06.736Z,19.35
2023-01-30T09:13:34.967Z,19.31
2023-01-30T09:16:01.559Z,19.31
2023-01-30T09:18:28.132Z,19.27
2023-01-30T09:21:02.860Z,19.36
2023-01-30T09:23:29.694Z,19.33
2023-01-30T09:25:56.299Z,19.35
2023-01-30T09:28:22.944Z,19.33
2023-01-30T09:30:49.606Z,19.35
2023-01-30T09:33:20.216Z,19.30
2023-01-30T09:35:50.213Z,19.46
2023-01-30T09:38:17.539Z,19.49
2023-01-30T09:41:30.618Z,19.81
2023-01-30T09:43:57.113Z,20.01
2023-01-30T09:46:42.693Z,20.29
2023-01-30T09:49:42.148Z,20.06
2023-01-30T09:52:25.146Z,20.06
2023-01-30T09:54:58.338Z,20.02
2023-01-30T09:57:26.034Z,19.97
2023-01-30T10:00:06.321Z,19.79
2023-01-30T10:02:39.540Z,19.68
2023-01-30T10:05:06.621Z,19.67
2023-01-30T10:08:01.189Z,19.75
2023-01-30T10:11:08.914Z,19.68
2023-01-30T10:13:48.666Z,19.50
2023-01-30T10:16:21.461Z,19.49
2023-01-30T10:18:53.890Z,19.52
2023-01-30T10:21:46.043Z,19.57
2023-01-30T10:24:41.171Z,19.58
2023-01-30T10:27:16.144Z,19.55
2023-01-30T10:29:57.978Z,19.62
2023-01-30T10:32:40.086Z,19.68
2023-01-30T10:35:15.873Z,19.75
2023-01-30T10:38:07.368Z,19.61
2023-01-30T10:40:41.424Z,19.63
2023-01-30T10:43:24.005Z,19.75
2023-01-30T10:45:54.528Z,19.74
2023-01-30T10:48:31.386Z,19.84
2023-01-30T10:51:38.570Z,20.11
2023-01-30T10:54:24.405Z,20.14
2023-01-30T10:57:12.008Z,20.15
2023-01-30T10:59:50.745Z,20.10
2023-01-30T11:02:35.308Z,20.06
2023-01-30T11:05:15.002Z,20.07
2023-01-30T11:07:45.833Z,20.04
2023-01-30T11:10:26.794Z,20.14
2023-01-30T11:13:00.551Z,20.15
2023-01-30T11:15:41.006Z,20.38
2023-01-30T11:19:01.701Z,20.33
2023-01-30T11:21:03.112Z,20.09
2023-01-30T11:23:40.579Z,19.98
2023-01-30T11:26:11.556Z,19.89
2023-01-30T11:28:44.330Z,19.79
2023-01-30T11:31:38.876Z,19.75
2023-01-30T11:34:15.312Z,19.69
2023-01-30T11:36:42.483Z,19.73
2023-01-30T11:39:15.889Z,19.69
2023-01-30T11:42:04.811Z,19.66
2023-01-30T11:44:37.916Z,19.62
2023-01-30T11:47:16.748Z,19.62
2023-01-30T11:50:11.632Z,19.61
2023-01-30T11:52:38.396Z,19.67
2023-01-30T11:55:12.591Z,19.69
2023-01-30T11:57:46.771Z,19.71
2023-01-30T12:00:19.911Z,19.65
2023-01-30T12:02:48.572Z,19.73
2023-01-30T12:05:36.482Z,19.78
2023-01-30T12:08:31.142Z,19.68
2023-01-30T12:11:02.637Z,19.70
2023-01-30T12:13:38.117Z,19.63
2023-01-30T12:16:04.675Z,19.67
2023-01-30T12:18:42.851Z,19.77
2023-01-30T12:21:15.071Z,19.94
2023-01-30T12:24:03.386Z,19.98
2023-01-30T12:26:41.145Z,20.02
2023-01-30T12:29:23.866Z,20.02
2023-01-30T12:34:34.017Z,19.75
2023-01-30T12:37:09.142Z,19.80
2023-01-30T12:39:52.477Z,19.85
2023-01-30T12:42:25.895Z,19.87
2023-01-30T12:44:52.615Z,19.89
2023-01-30T12:47:43.484Z,19.95
2023-01-30T12:50:27.713Z,20.00
2023-01-30T12:53:13.844Z,20.02
2023-01-30T12:56:23.672Z,20.04
2023-01-30T12:58:55.848Z,19.96
2023-01-30T13:01:48.074Z,19.94
2023-01-30T13:05:01.895Z,19.99
2023-01-30T13:07:36.769Z,19.97
2023-01-30T13:10:18.968Z,20.00
2023-01-30T13:13:00.621Z,19.94
2023-01-30T13:15:41.744Z,19.80
2023-01-30T13:18:25.454Z,19.87
2023-01-30T13:21:00.503Z,20.20
2023-01-30T13:23:44.636Z,20.43
2023-01-30T13:26:19.588Z,20.50
2023-01-30T13:28:56.656Z,20.58
2023-01-30T13:31:26.769Z,20.66
2023-01-30T13:34:06.359Z,20.54
2023-01-30T13:36:59.156Z,20.34
2023-01-30T13:39:58.599Z,20.11
2023-01-30T13:42:25.147Z,19.99
2023-01-30T13:44:53.984Z,19.88
2023-01-30T13:47:30.527Z,19.86
2023-01-30T13:50:26.895Z,19.75
2023-01-30T13:53:09.609Z,19.70
2023-01-30T13:55:48.210Z,19.60
2023-01-30T13:58:44.251Z,19.56
2023-01-30T14:01:13.331Z,19.52
2023-01-30T14:03:41.763Z,19.56
2023-01-30T14:06:31.657Z,19.55
2023-01-30T14:09:01.489Z,19.53
2023-01-30T14:11:37.716Z,19.60
2023-01-30T14:14:19.459Z,19.55
2023-01-30T14:16:49.071Z,19.54
2023-01-30T14:19:38.833Z,19.47
2023-01-30T14:22:36.863Z,19.54
2023-01-30T14:25:27.583Z,19.52
2023-01-30T14:28:17.184Z,19.59
2023-01-30T14:30:55.459Z,19.53
2023-01-30T14:33:21.918Z,19.57
2023-01-30T14:36:01.069Z,19.58
2023-01-30T14:38:27.733Z,19.59
2023-01-30T14:41:02.980Z,19.58
2023-01-30T14:43:41.866Z,19.56
2023-01-30T14:46:17.217Z,19.54
2023-01-30T14:48:50.135Z,19.53
2023-01-30T14:51:42.545Z,19.54
2023-01-30T14:54:11.855Z,19.47
2023-01-30T14:57:03.351Z,19.49
2023-01-30T14:59:35.943Z,19.50
2023-01-30T15:02:15.048Z,19.51
2023-01-30T15:04:44.704Z,19.41
2023-01-30T15:07:19.961Z,19.46
2023-01-30T15:09:59.447Z,19.42
2023-01-30T15:12:46.111Z,19.49
2023-01-30T15:15:58.068Z,19.50
2023-01-30T15:18:40.148Z,19.48
2023-01-30T15:21:24.943Z,19.52
2023-01-30T15:24:10.146Z,19.44
2023-01-30T15:26:48.667Z,19.49
2023-01-30T15:29:39.745Z,19.53
2023-01-30T15:32:24.742Z,19.46
2023-01-30T15:34:57.587Z,19.46
2023-01-30T15:37:31.454Z,19.47
2023-01-30T15:40:16.444Z,19.46
2023-01-30T15:42:52.413Z,19.43
2023-01-30T15:45:41.535Z,19.46
2023-01-30T15:48:38.959Z,19.47
2023-01-30T15:51:05.799Z,19.41
2023-01-30T15:53:36.103Z,19.42
2023-01-30T15:56:07.064Z,19.44
2023-01-30T15:58:43.855Z,19.42
2023-01-30T16:01:16.877Z,19.44
2023-01-30T16:03:43.535Z,19.39
2023-01-30T16:06:28.271Z,19.43
2023-01-30T16:08:57.156Z,19.39
2023-01-30T16:11:43.372Z,19.39
2023-01-30T16:14:21.656Z,19.32
2023-01-30T16:17:00.247Z,19.39
2023-01-30T16:19:31.008Z,19.39
2023-01-30T16:22:02.088Z,19.35
2023-01-30T16:24:35.218Z,19.37
2023-01-30T16:27:07.220Z,19.39
2023-01-30T16:29:46.749Z,19.39
2023-01-30T16:32:14.694Z,19.31
2023-01-30T16:34:41.425Z,19.35
2023-01-30T16:37:20.116Z,19.40
2023-01-30T16:40:19.112Z,19.39
2023-01-30T16:42:57.802Z,19.39
2023-01-30T16:45:27.298Z,19.40
2023-01-30T16:47:53.894Z,19.39
2023-01-30T16:50:24.167Z,19.35
2023-01-30T16:52:55.024Z,19.38
2023-01-30T16:55:24.747Z,19.40
2023-01-30T16:57:54.701Z,19.40
2023-01-30T17:00:25.977Z,19.43
2023-01-30T17:03:01.630Z,19.42
2023-01-30T17:05:40.467Z,19.47
2023-01-30T17:08:33.025Z,19.41
2023-01-30T17:11:00.977Z,19.45
2023-01-30T17:13:33.467Z,19.47
2023-01-30T17:16:21.946Z,19.45
2023-01-30T17:18:49.514Z,19.47
2023-01-30T17:21:16.456Z,19.45
2023-01-30T17:23:46.741Z,19.45
2023-01-30T17:26:15.701Z,19.43
2023-01-30T17:28:43.357Z,19.45
2023-01-30T17:31:14.836Z,19.43
2023-01-30T17:33:42.213Z,19.43
2023-01-30T17:36:26.047Z,19.44
2023-01-30T17:38:52.915Z,19.46
2023-01-30T17:41:25.604Z,19.42
2023-01-30T17:43:52.293Z,19.37
2023-01-30T17:46:23.091Z,19.38
2023-01-30T17:48:50.969Z,19.37
2023-01-30T17:51:17.530Z,19.36
2023-01-30T17:53:44.184Z,19.40
2023-01-30T17:56:24.132Z,19.42
2023-01-30T17:58:50.856Z,19.37
2023-01-30T18:01:19.029Z,19.39
2023-01-30T18:03:45.985Z,19.36
2023-01-30T18:06:16.394Z,18.62
2023-01-30T18:08:43.140Z,18.87
2023-01-30T18:11:11.923Z,19.17
2023-01-30T18:13:47.734Z,19.45
2023-01-30T18:16:23.374Z,19.52
2023-01-30T18:18:50.511Z,19.45
2023-01-30T18:21:18.128Z,19.46
2023-01-30T18:23:44.684Z,19.50
2023-01-30T18:26:12.396Z,19.51
2023-01-30T18:28:39.862Z,19.54
2023-01-30T18:31:07.037Z,19.51
2023-01-30T18:33:34.110Z,19.52
2023-01-30T18:36:06.186Z,19.54
2023-01-30T18:38:32.963Z,19.54
2023-01-30T18:40:59.555Z,19.52
2023-01-30T18:43:26.221Z,19.52
2023-01-30T18:46:11.623Z,19.51
2023-01-30T18:48:38.857Z,19.50
2023-01-30T18:51:12.003Z,19.54
2023-01-30T18:53:39.286Z,19.52
2023-01-30T18:56:14.770Z,19.52
2023-01-30T18:58:41.569Z,19.49
2023-01-30T19:01:10.618Z,19.49
2023-01-30T19:03:37.533Z,19.51
2023-01-30T19:06:04.441Z,19.45
2023-01-30T19:08:31.520Z,19.47
2023-01-30T19:11:32.030Z,19.56
2023-01-30T19:13:59.287Z,19.45
2023-01-30T19:16:28.041Z,19.44
2023-01-30T19:18:55.320Z,19.48
2023-01-30T19:21:23.501Z,19.51
2023-01-30T19:23:50.481Z,19.47
2023-01-30T19:26:18.440Z,19.52
2023-01-30T19:28:45.863Z,19.51
2023-01-30T19:31:18.090Z,19.53
2023-01-30T19:33:46.753Z,19.49
2023-01-30T19:36:18.778Z,19.50
2023-01-30T19:38:47.163Z,19.52
2023-01-30T19:41:16.239Z,19.51
2023-01-30T19:43:43.109Z,19.52
2023-01-30T19:46:13.641Z,19.52
2023-01-30T19:48:44.302Z,19.59
2023-01-30T19:51:22.174Z,19.55
2023-01-30T19:53:54.471Z,19.52
2023-01-30T19:56:22.706Z,19.49
2023-01-30T19:58:52.974Z,19.49
2023-01-30T20:01:21.591Z,19.53
2023-01-30T20:03:48.804Z,19.50
2023-01-30T20:06:17.949Z,19.61
2023-01-30T20:08:46.300Z,19.56
2023-01-30T20:11:14.872Z,19.51
2023-01-30T20:13:43.499Z,19.61
2023-01-30T20:16:13.064Z,19.59
2023-01-30T20:18:40.794Z,19.56
2023-01-30T20:21:09.269Z,19.56
2023-01-30T20:23:37.061Z,19.56
2023-01-30T20:26:08.602Z,19.55
2023-01-30T20:28:36.564Z,19.57
2023-01-30T20:31:15.781Z,19.59
2023-01-30T20:33:43.171Z,19.59
2023-01-30T20:36:13.250Z,19.54
2023-01-30T20:38:42.551Z,19.61
2023-01-30T20:41:11.817Z,19.61
2023-01-30T20:43:40.460Z,19.62
2023-01-30T20:46:12.650Z,19.64
2023-01-30T20:48:40.511Z,19.59
2023-01-30T20:51:13.020Z,19.61
2023-01-30T20:53:46.006Z,19.62
2023-01-30T20:56:12.544Z,19.59
2023-01-30T20:58:39.739Z,19.58
2023-01-30T21:01:11.573Z,19.56
2023-01-30T21:03:39.552Z,19.57
2023-01-30T21:06:06.331Z,19.53
2023-01-30T21:08:33.562Z,19.54
2023-01-30T21:11:09.159Z,19.57
2023-01-30T21:13:37.041Z,19.55
2023-01-30T21:16:11.134Z,19.56
2023-01-30T21:18:40.124Z,19.54
2023-01-30T21:21:08.970Z,19.55
2023-01-30T21:23:36.178Z,19.57
2023-01-30T21:26:06.025Z,19.56
2023-01-30T21:28:33.336Z,19.59
2023-01-30T21:31:07.104Z,19.60
2023-01-30T21:33:34.117Z,19.53
2023-01-30T21:36:01.955Z,19.57
2023-01-30T21:38:47.899Z,19.57
2023-01-30T21:41:39.294Z,19.63
2023-01-30T21:44:06.445Z,19.53
2023-01-30T21:46:37.834Z,19.59
2023-01-30T21:49:05.149Z,19.59
2023-01-30T21:51:32.178Z,19.59
2023-01-30T21:54:00.257Z,19.54
2023-01-30T21:56:26.813Z,19.56
2023-01-30T21:58:55.788Z,19.60
2023-01-30T22:01:22.742Z,19.49
2023-01-30T22:03:49.436Z,19.53
2023-01-30T22:06:16.198Z,19.55
2023-01-30T22:08:42.838Z,19.54
2023-01-30T22:11:11.513Z,19.52
2023-01-30T22:13:39.865Z,19.56
2023-01-30T22:16:12.582Z,19.53
2023-01-30T22:18:40.330Z,19.51
2023-01-30T22:21:11.217Z,19.54
2023-01-30T22:23:40.550Z,19.57
2023-01-30T22:26:08.259Z,19.57
2023-01-30T22:28:38.481Z,19.50
2023-01-30T22:31:19.629Z,19.57
2023-01-30T22:33:48.664Z,19.52
2023-01-30T22:36:15.636Z,19.55
2023-01-30T22:38:46.745Z,19.55
2023-01-30T22:41:16.210Z,19.52
2023-01-30T22:43:47.983Z,19.56
2023-01-30T22:46:15.758Z,19.53
2023-01-30T22:48:42.902Z,19.53
2023-01-30T22:51:21.444Z,19.55
2023-01-30T22:53:59.122Z,19.54
2023-01-30T22:56:28.868Z,19.54
2023-01-30T22:58:56.063Z,19.56
2023-01-30T23:01:31.046Z,19.60
2023-01-30T23:04:00.444Z,19.62
2023-01-30T23:06:27.799Z,19.57
2023-01-30T23:08:55.644Z,19.56
2023-01-30T23:11:28.901Z,19.65
2023-01-30T23:13:58.080Z,19.66
2023-01-30T23:16:27.626Z,19.61
2023-01-30T23:18:58.620Z,19.52
2023-01-30T23:21:36.013Z,19.64
2023-01-30T23:24:06.081Z,19.49
2023-01-30T23:26:34.788Z,19.53
2023-01-30T23:29:02.812Z,19.54
2023-01-30T23:31:30.331Z,19.53
2023-01-30T23:33:59.233Z,19.56
2023-01-30T23:36:26.249Z,19.55
2023-01-30T23:38:54.828Z,19.54
2023-01-30T23:41:30.945Z,19.50
2023-01-30T23:43:58.704Z,19.53
2023-01-30T23:46:31.174Z,19.53
2023-01-30T23:49:00.626Z,19.51
2023-01-30T23:51:29.419Z,19.51
2023-01-30T23:53:57.166Z,19.51
2023-01-30T23:56:27.498Z,19.52
2023-01-30T23:58:54.177Z,19.49
